Date,TemperatureHighF,TemperatureAvgF,TemperatureLowF,DewpointHighF,DewpointAvgF,DewpointLowF,HumidityHigh,HumidityAvg,HumidityLow,PressureMaxIn,PressureMinIn,WindSpeedMaxMPH,WindSpeedAvgMPH,GustSpeedMaxMPH,PrecipitationSumIn
2013-1-1,19,19,18,16,15,15,87,86,86,30.15,30.15,1,0,1,0.00
2013-1-2,34,27,15,28,22,12,94,84,78,30.33,30.12,7,2,12,0.00
2013-1-3,30,23,17,24,18,13,90,80,65,30.47,30.33,5,2,10,0.00
2013-1-4,42,23,9,24,15,6,87,74,48,30.33,30.14,2,0,9,0.00
2013-1-5,39,23,11,27,17,8,90,78,61,30.34,30.09,11,4,17,0.00
2013-1-6,43,27,12,29,20,9,91,76,55,30.37,30.06,8,2,14,0.00
2013-1-7,45,32,22,27,24,19,90,75,49,30.07,29.98,10,1,21,0.00
2013-1-8,46,31,17,35,25,15,94,81,57,30.22,29.84,5,1,6,0.00
2013-1-9,50,36,24,34,28,20,90,74,51,30.44,30.22,6,2,10,0.00
2013-1-10,40,37,35,35,31,26,96,81,56,30.29,29.63,6,3,13,0.03
2013-1-11,40,33,18,39,31,12,96,92,75,29.79,29.39,11,4,17,0.00
2013-1-12,18,13,9,13,6,4,83,75,65,30.26,29.80,11,6,22,0.00
2013-1-13,21,12,6,9,4,1,83,72,53,30.44,30.27,7,3,13,0.00
2013-1-14,29,15,1,12,6,-2,87,69,40,30.55,30.41,7,1,12,0.00
2013-1-15,35,24,15,15,10,3,83,58,26,30.41,30.04,8,3,18,0.00
2013-1-16,52,39,24,32,28,15,91,67,40,30.30,29.95,10,3,19,0.00
2013-1-17,51,35,22,33,28,20,94,78,47,30.47,30.24,4,1,6,0.00
2013-1-18,63,44,34,28,24,20,78,50,19,30.24,29.88,6,2,9,0.00
2013-1-19,52,38,16,29,24,8,75,58,40,30.40,29.87,9,4,19,0.00
2013-1-20,22,16,13,11,7,4,81,69,56,30.54,30.34,4,1,7,0.00
2013-1-21,15,10,5,7,-3,-10,78,57,41,30.55,30.45,7,3,14,0.00
2013-1-22,25,16,9,12,8,3,84,73,51,30.47,30.28,6,2,16,0.00
2013-1-23,25,16,7,16,10,2,92,76,57,30.63,30.25,6,1,12,0.00
2013-1-24,19,9,1,8,0,-6,82,67,45,30.63,30.24,7,3,15,0.00
2013-1-25,48,30,18,26,19,8,87,67,38,30.31,30.22,5,1,9,0.00
2013-1-26,56,34,17,30,22,14,90,65,30,30.28,29.96,11,4,15,0.00
2013-1-27,42,39,35,40,36,27,96,88,57,29.96,29.70,4,1,9,0.33
2013-1-28,39,33,28,38,32,27,97,96,96,29.85,29.65,6,1,9,0.03
2013-1-29,38,32,21,33,29,18,96,88,78,29.88,29.69,7,3,13,0.00
2013-1-30,22,18,9,18,13,5,89,80,71,30.05,29.87,9,5,16,0.00
2013-1-31,9,4,-1,5,-3,-7,83,73,60,30.54,30.05,11,5,20,0.00
2013-2-1,43,23,0,35,15,-5,89,72,55,30.54,30.09,7,2,13,0.01
2013-2-2,50,35,25,36,28,22,89,75,45,30.23,30.08,11,4,19,0.00
2013-2-3,57,38,21,30,25,19,92,63,29,30.27,29.80,10,3,16,0.00
2013-2-4,40,29,23,29,24,20,91,82,64,30.05,29.82,4,2,11,0.00
2013-2-5,49,39,32,31,27,22,84,64,35,30.06,29.87,8,2,15,0.00
2013-2-6,53,42,34,39,32,26,77,68,50,30.05,29.81,6,2,8,0.00
2013-2-7,39,31,26,31,27,23,94,85,73,30.30,29.97,5,2,14,0.00
2013-2-8,37,29,24,30,26,23,94,88,73,30.33,30.07,8,4,15,0.00
2013-2-9,54,40,30,40,33,27,91,77,45,30.07,29.58,10,6,19,0.00
2013-2-10,40,34,28,38,32,24,96,91,84,29.89,29.25,14,7,24,0.41
2013-2-11,29,25,18,25,20,16,92,80,72,30.20,29.89,13,5,23,0.00
2013-2-12,41,29,16,26,20,14,91,71,44,30.18,29.97,5,2,11,0.00
2013-2-13,50,31,25,29,24,22,87,77,38,29.97,29.82,7,2,9,0.00
2013-2-20,24,22,19,16,9,4,87,60,42,30.35,30.29,8,5,15,0.00
2013-2-21,22,20,17,17,15,11,91,82,66,30.31,30.02,6,3,13,0.00
2013-2-22,22,16,13,16,13,10,90,85,75,30.12,30.03,7,3,13,0.00
2013-2-24,33,28,16,26,24,14,91,83,76,30.18,30.02,3,1,5,0.01
2013-2-25,37,30,22,29,25,20,93,84,65,30.18,30.00,2,1,5,0.00
2013-2-26,27,24,22,26,22,20,93,93,91,30.08,29.94,3,1,9,0.00
2013-2-27,37,29,21,28,24,19,92,81,67,30.23,30.07,10,6,17,0.00
2013-2-28,30,27,25,25,23,21,89,84,79,30.33,30.22,7,4,15,0.00
2013-3-1,33,25,16,21,19,14,90,78,61,30.45,30.32,4,1,10,0.00
2013-3-2,39,27,12,31,22,10,91,83,69,30.44,30.08,6,2,11,0.00
2013-3-3,40,31,27,34,28,25,93,90,80,30.07,29.83,7,2,11,0.00
2013-3-4,47,37,26,35,25,14,95,63,42,30.12,29.78,11,6,13,0.00
2013-3-5,32,25,20,18,16,14,83,69,54,30.49,30.11,13,7,25,0.00
2013-3-6,37,25,13,23,18,10,92,77,55,30.50,30.24,8,3,16,0.00
2013-3-7,51,36,23,30,26,20,88,69,44,30.25,30.09,8,4,15,0.00
2013-3-8,50,39,27,39,32,24,90,76,57,30.19,29.86,8,3,16,0.00
2013-3-9,46,38,30,45,37,28,96,94,82,29.88,29.62,6,4,14,0.29
2013-3-10,31,22,19,29,19,15,93,87,80,30.13,29.88,10,7,22,0.00
2013-3-11,48,27,13,31,19,10,88,73,46,30.12,29.92,9,3,16,0.03
2013-3-12,32,29,22,25,21,18,85,72,59,30.41,30.10,11,5,22,0.00
2013-3-13,48,30,15,29,22,12,92,73,39,30.47,30.22,7,2,16,0.00
2013-3-14,67,49,33,39,33,28,85,59,29,30.22,30.03,5,1,9,0.00
2013-3-15,57,48,33,42,38,30,90,69,53,30.02,29.74,6,2,12,0.00
2013-3-16,33,28,20,31,21,16,91,75,55,30.24,29.93,7,3,19,0.00
2013-3-17,43,33,24,35,26,20,91,78,54,30.20,29.69,10,5,19,0.04
2013-3-18,38,30,25,35,16,10,91,57,36,30.11,29.75,13,7,25,0.00
2013-3-19,48,31,18,24,17,12,82,59,26,30.44,30.11,9,3,18,0.00
2013-3-20,38,24,13,14,11,5,84,60,34,30.48,30.16,4,2,10,0.00
2013-3-21,28,25,21,22,17,12,86,73,62,30.16,29.96,6,4,13,0.00
2013-3-22,29,27,25,26,24,18,93,87,67,30.10,30.01,4,2,9,0.00
2013-3-23,33,29,24,28,25,18,92,87,78,30.24,30.09,5,1,12,0.06
2013-3-24,26,22,16,21,16,12,88,78,65,30.26,30.18,9,5,21,0.00
2013-3-25,27,24,22,21,19,16,88,81,71,30.44,30.26,8,5,18,0.00
2013-3-26,46,28,10,24,18,7,91,68,36,30.44,30.24,5,2,12,0.01
2013-3-27,55,39,26,31,26,21,84,63,37,30.28,30.17,7,3,13,0.00
2013-3-28,58,44,31,36,30,27,86,63,33,30.24,30.16,6,2,11,0.00
2013-3-29,70,51,32,50,37,28,91,62,34,30.20,29.98,8,2,17,0.18
2013-3-30,63,52,43,48,43,37,96,75,41,30.03,29.92,6,2,18,0.08
2013-3-31,54,42,27,41,31,21,91,68,32,30.23,29.97,6,3,15,0.00
2013-4-1,42,31,20,22,19,15,84,63,42,30.39,30.23,4,1,9,0.00
2013-4-2,58,40,24,29,24,17,78,56,33,30.35,30.18,5,2,9,0.00
2013-4-3,60,45,30,32,27,24,79,53,29,30.29,30.13,12,6,20,0.00
2013-4-4,60,47,36,32,26,19,80,49,20,30.17,30.10,8,3,17,0.00
2013-4-5,69,50,32,42,32,27,84,55,23,30.15,29.62,12,6,23,0.00
2013-4-6,71,58,48,44,40,33,70,53,25,29.76,29.55,10,4,21,0.00
2013-4-7,67,52,44,52,43,36,94,75,32,29.80,29.61,8,2,12,0.09
2013-4-8,70,54,42,52,47,40,96,79,45,29.77,29.60,8,3,17,0.00
2013-4-9,43,28,22,42,26,20,95,92,88,30.15,29.68,11,6,22,1.01
2013-4-10,31,28,25,28,26,23,94,92,89,30.17,29.94,6,3,15,0.00
2013-4-11,33,29,27,29,26,25,94,89,82,29.94,29.74,7,5,15,0.00
2013-4-12,38,32,28,30,27,25,90,82,71,30.07,29.85,8,5,14,0.03
2013-4-13,49,39,28,41,34,26,92,81,74,30.07,29.59,9,4,16,0.02
2013-4-14,54,45,36,46,39,30,95,80,54,29.70,29.31,10,5,18,0.07
2013-4-15,46,37,29,30,26,20,80,65,46,30.15,29.70,8,4,14,0.00
2013-4-16,48,39,32,31,28,26,84,67,45,30.29,30.13,5,2,13,0.00
2013-4-17,38,34,31,35,31,28,94,89,72,30.24,29.96,6,4,17,0.03
2013-4-18,32,30,27,29,27,24,93,88,79,30.04,29.91,12,7,22,0.00
2013-4-19,42,33,23,24,22,19,85,65,43,30.16,29.98,9,4,15,0.00
2013-4-20,44,34,25,27,24,21,87,67,47,30.27,30.15,9,4,17,0.00
2013-4-21,63,45,33,46,36,26,85,71,47,30.18,30.03,7,2,13,0.00
2013-4-22,41,34,29,37,31,26,94,91,85,30.39,30.07,6,3,16,0.05
2013-4-23,37,30,24,27,22,19,90,75,56,30.38,30.26,5,2,11,0.17
2013-4-24,56,37,22,34,26,18,87,66,37,30.26,30.10,9,3,18,0.04
2013-4-25,73,51,28,37,32,25,88,54,23,30.25,29.89,12,5,26,0.00
2013-4-26,74,60,44,37,34,30,71,41,20,30.14,29.93,10,3,22,0.00
2013-4-27,80,61,37,47,36,30,85,46,18,30.14,29.83,4,1,8,0.00
2013-4-28,86,67,53,50,43,30,79,48,14,29.86,29.59,7,3,12,0.00
2013-4-29,81,66,50,49,43,36,74,46,24,29.79,29.38,6,3,15,0.00
2013-4-30,70,60,48,56,39,22,75,49,17,30.01,29.36,8,4,16,0.11
2013-5-1,48,38,33,41,33,30,95,83,68,30.57,29.98,5,2,11,1.30
2013-5-2,53,43,36,31,28,24,81,59,34,30.70,30.46,6,2,18,0.07
2013-5-3,53,42,30,28,24,19,81,51,28,30.47,30.14,5,2,15,0.00
2013-5-4,46,42,38,38,32,25,91,68,53,30.24,30.11,6,3,14,0.03
2013-5-5,55,46,40,46,41,38,94,86,70,30.25,30.14,3,2,9,0.20
2013-5-6,71,52,35,47,39,34,96,67,31,30.19,30.02,3,1,8,0.00
2013-5-7,68,58,49,55,48,38,91,72,51,30.05,29.90,5,2,11,0.18
2013-5-8,69,60,54,60,56,50,96,87,71,29.92,29.86,4,1,8,0.38
2013-5-9,61,55,51,55,53,49,96,91,79,30.06,29.88,4,2,12,0.04
2013-5-10,71,58,47,54,47,35,97,72,27,30.12,29.99,4,1,6,0.01
2013-5-11,61,53,41,47,30,18,72,45,21,30.30,30.06,7,3,14,0.00
2013-5-12,69,52,34,36,29,23,87,46,20,30.28,30.06,4,1,10,0.00
2013-5-13,92,70,51,52,46,35,75,47,18,30.06,29.76,9,3,16,0.00
2013-5-14,98,80,65,53,47,40,60,35,14,29.77,29.58,9,2,15,0.00
2013-5-15,82,69,58,46,43,37,60,40,26,29.89,29.71,7,2,16,0.00
2013-5-16,81,66,57,62,53,44,95,65,31,29.82,29.69,9,2,16,0.44
2013-5-17,89,74,60,63,59,55,91,63,33,29.80,29.67,6,2,13,0.00
2013-5-18,82,72,63,68,63,59,91,75,59,29.81,29.56,10,2,21,0.24
2013-5-19,71,63,57,64,59,55,94,88,76,29.64,29.43,3,1,9,0.77
2013-5-20,68,60,55,57,53,50,94,79,52,29.60,29.49,7,3,14,0.03
2013-5-21,57,53,49,51,48,46,94,85,78,29.77,29.58,8,5,14,0.01
2013-5-22,59,51,48,50,48,46,95,88,72,30.04,29.74,5,3,10,0.05
2013-5-23,71,59,49,50,46,42,94,66,36,30.23,30.04,5,2,13,0.00
2013-5-24,75,62,51,59,49,42,79,63,47,30.20,29.94,7,3,21,0.00
2013-5-25,80,70,62,67,61,54,89,74,53,29.98,29.82,6,3,13,0.00
2013-5-26,66,62,54,63,60,52,96,93,89,29.90,29.72,7,3,17,1.36
2013-5-27,77,67,58,65,60,56,96,81,64,29.90,29.61,5,1,16,0.30
2013-5-28,79,67,55,63,59,54,96,77,54,29.73,29.58,4,1,9,0.33
2013-5-29,74,68,60,68,63,55,96,85,53,29.61,29.36,8,2,20,0.55
2013-5-30,78,66,57,61,56,50,97,72,40,29.52,29.36,8,3,23,0.04
2013-5-31,72,64,56,51,47,45,73,56,41,29.62,29.52,9,6,23,0.00
2013-6-1,58,55,50,52,49,46,92,81,71,30.09,29.61,9,4,23,0.00
2013-6-2,70,56,42,47,43,39,96,65,33,30.16,29.98,2,0,23,0.00
2013-6-3,79,64,50,54,48,43,83,59,36,29.98,29.71,9,3,0,0.00
2013-6-4,76,66,60,60,56,51,91,70,44,30.01,29.74,5,1,0,0.06
2013-6-5,67,60,52,52,49,46,82,68,54,30.06,29.98,4,2,0,0.02
2013-6-6,70,61,51,53,51,48,93,71,48,30.02,29.97,2,0,0,0.00
2013-6-7,79,63,45,54,48,43,96,64,29,30.03,29.78,2,0,0,0.00
2013-6-8,66,63,61,63,57,48,95,83,57,29.78,29.59,6,2,0,0.33
2013-6-9,72,63,58,59,56,55,90,78,62,29.84,29.66,6,3,0,0.00
2013-6-10,86,69,50,64,57,48,97,69,38,29.85,29.69,4,1,0,0.00
2013-6-11,90,78,66,72,67,62,88,70,46,29.78,29.52,7,2,0,0.00
2013-6-12,77,70,58,70,61,54,88,73,55,30.04,29.54,7,3,0,0.00
2013-6-13,77,66,54,61,54,50,94,69,43,30.09,29.93,3,0,0,0.02
2013-6-14,92,75,64,71,62,54,78,65,46,30.01,29.63,8,2,0,0.00
2013-6-15,84,73,63,67,64,61,95,75,54,29.92,29.72,10,0,0,0.09
2013-6-16,84,71,59,64,56,50,96,64,32,29.99,29.86,4,0,0,0.00
2013-6-17,84,71,55,61,56,53,93,63,37,30.01,29.92,2,0,0,0.00
2013-6-18,84,72,60,62,58,54,89,63,40,30.03,29.89,3,1,0,0.00
2013-6-19,88,76,63,67,61,57,86,62,38,29.93,29.75,6,2,0,0.00
2013-6-20,91,79,69,71,67,61,84,67,49,29.81,29.66,5,2,0,0.00
2013-6-21,96,85,74,72,68,64,83,61,36,29.74,29.61,8,3,0,0.00
2013-6-22,85,74,65,72,66,59,95,78,56,29.91,29.56,11,2,0,0.26
2013-6-23,84,72,62,68,63,57,94,73,47,29.85,29.58,12,1,0,0.31
2013-6-24,85,75,67,72,68,64,93,80,63,29.82,29.62,6,2,0,0.03
2013-6-25,86,79,71,72,66,56,88,65,50,29.67,29.58,6,2,0,0.07
2013-6-26,94,80,65,70,64,54,95,62,28,29.81,29.62,2,0,0,0.00
2013-6-27,89,77,69,69,65,61,93,67,42,29.95,29.80,4,0,0,0.38
2013-6-28,85,76,65,66,58,52,84,58,34,29.99,29.90,6,1,0,0.00
2013-6-29,81,71,60,59,57,55,87,65,43,29.96,29.90,5,1,0,0.00
2013-6-30,80,69,57,59,55,50,90,63,40,30.11,29.97,2,0,0,0.00
2013-7-1,83,69,51,59,52,48,94,60,30,30.19,30.11,2,0,5,0.00
2013-7-2,86,72,56,60,55,49,89,60,28,30.13,30.02,2,0,5,0.00
2013-7-3,86,72,56,62,56,51,93,61,32,30.03,29.85,4,1,14,0.00
2013-7-4,88,76,63,60,57,53,73,53,37,29.88,29.74,7,3,16,0.00
2013-7-5,87,78,69,67,61,56,67,57,50,29.79,29.69,6,3,14,0.00
2013-7-6,92,80,73,69,63,57,73,57,42,29.72,29.64,5,3,15,0.00
2013-7-7,92,79,68,75,68,64,89,72,52,29.86,29.70,3,0,7,0.00
2013-7-8,92,79,67,75,69,64,92,74,51,29.89,29.80,4,1,8,0.31
2013-7-9,92,80,70,75,70,66,92,73,54,29.95,29.76,2,0,6,0.00
2013-7-10,85,74,62,67,65,60,95,73,52,30.05,29.93,3,0,9,0.00
2013-7-11,88,76,65,67,64,59,88,68,44,30.00,29.82,6,2,19,0.00
2013-7-12,93,81,69,74,67,61,77,65,49,29.87,29.73,8,3,20,0.00
2013-7-13,94,84,76,76,72,70,83,69,53,29.82,29.74,4,2,12,0.00
2013-7-14,80,75,69,72,69,65,94,83,70,30.07,29.80,5,2,16,0.23
2013-7-15,86,75,63,67,63,60,92,69,43,30.14,30.04,4,1,9,0.00
2013-7-16,87,77,65,67,65,62,90,69,49,30.16,30.08,7,2,14,0.00
2013-7-17,90,79,67,69,66,64,89,66,45,30.21,30.05,7,2,15,0.00
2013-7-18,93,82,70,69,67,65,85,62,43,30.05,29.78,10,4,20,0.00
2013-7-19,92,82,68,72,64,55,76,56,31,29.88,29.79,4,0,12,0.00
2013-7-20,83,70,62,67,62,57,92,77,54,30.00,29.82,5,1,6,0.45
2013-7-21,90,76,64,70,65,62,93,70,40,29.88,29.69,3,1,6,0.00
2013-7-22,91,79,71,73,67,60,91,68,38,29.80,29.66,2,0,8,0.00
2013-7-23,82,71,64,66,62,59,93,75,52,29.97,29.78,8,1,16,0.04
2013-7-24,86,72,57,66,61,55,95,72,41,30.05,29.92,3,0,8,0.00
2013-7-25,89,74,65,67,64,58,93,73,40,29.98,29.85,4,1,8,0.00
2013-7-26,74,66,56,63,55,51,95,70,46,30.13,29.96,3,1,8,0.00
2013-7-27,74,62,50,52,49,46,92,64,41,30.14,30.00,2,0,5,0.00
2013-7-28,77,64,47,56,50,44,93,64,44,30.05,29.96,3,1,7,0.00
2013-7-29,65,62,58,63,58,52,96,88,66,30.02,29.96,4,1,10,0.40
2013-7-30,78,69,63,67,64,62,96,86,65,30.07,30.00,2,0,9,0.00
2013-7-31,84,72,62,68,64,61,96,78,52,30.10,29.99,1,0,6,0.00
2013-8-1,84,68,61,70,64,60,96,86,52,30.06,29.80,7,1,10,0.47
2013-8-2,81,69,63,69,65,61,97,87,56,30.00,29.80,3,0,7,0.02
2013-8-3,74,66,60,62,60,57,91,81,62,30.17,29.99,4,0,8,0.00
2013-8-4,78,67,57,68,61,55,93,82,67,30.16,29.94,5,2,13,0.00
2013-8-5,86,75,68,74,70,66,96,85,58,29.95,29.78,4,1,10,0.05
2013-8-6,87,75,64,73,68,62,96,79,56,29.89,29.74,6,1,16,0.60
2013-8-7,83,73,61,68,63,58,91,73,52,29.94,29.82,1,0,5,0.00
2013-8-8,77,70,64,67,64,60,92,82,59,29.98,29.90,4,1,10,0.01
2013-8-9,82,70,59,67,61,58,97,76,47,30.10,29.98,2,0,6,0.00
2013-8-10,84,73,64,68,64,59,90,74,55,30.12,29.96,9,2,17,0.00
2013-8-11,83,74,66,71,66,62,91,78,62,30.00,29.94,5,2,11,0.00
2013-8-12,83,72,63,67,64,60,97,78,48,30.04,29.97,2,0,6,0.00
2013-8-13,77,68,62,62,60,56,95,76,52,30.14,30.03,3,0,8,0.00
2013-8-14,64,62,59,63,60,56,96,92,87,30.13,30.00,2,1,11,0.79
2013-8-15,69,63,60,65,61,59,97,94,86,30.08,29.98,2,1,9,0.00
2013-8-16,72,65,61,64,61,60,97,90,73,30.12,30.07,2,0,10,0.00
2013-8-17,79,69,60,67,62,58,94,81,63,30.11,30.01,6,2,13,0.00
2013-8-18,79,70,61,67,62,57,85,76,63,30.06,29.95,7,2,16,0.00
2013-8-19,87,76,65,73,68,62,91,78,61,29.96,29.79,7,2,15,0.00
2013-8-20,90,78,66,76,70,64,95,79,61,29.83,29.77,6,2,11,0.00
2013-8-21,92,80,68,75,70,65,95,73,54,30.01,29.79,6,2,13,0.64
2013-8-22,84,74,66,72,68,64,96,83,64,30.02,29.89,6,1,9,0.24
2013-8-23,87,77,69,74,71,67,94,81,63,30.01,29.83,5,2,11,0.00
2013-8-24,90,81,74,76,72,70,91,76,61,29.89,29.82,7,4,17,0.03
2013-8-25,92,83,74,76,72,70,87,72,55,29.93,29.86,8,4,15,0.00
2013-8-26,93,84,74,76,71,67,79,66,56,29.92,29.77,8,4,16,0.00
2013-8-27,95,84,74,77,70,64,78,63,49,29.82,29.76,6,2,16,0.00
2013-8-28,95,82,69,73,68,62,83,64,42,29.89,29.80,5,1,12,0.00
2013-8-29,94,82,68,75,71,66,91,71,49,29.91,29.78,5,1,10,0.00
2013-8-30,91,80,71,77,72,68,94,77,53,29.86,29.78,2,0,6,0.00
2013-8-31,93,80,67,72,68,63,93,70,38,29.86,29.69,5,1,10,0.01
2013-9-1,81,72,62,70,59,56,87,66,44,29.99,29.74,4,1,6,0.00
2013-9-2,82,68,54,63,59,52,95,75,50,30.07,29.96,2,0,6,0.00
2013-9-3,87,72,57,66,61,54,88,69,48,30.01,29.91,6,2,13,0.00
2013-9-4,90,76,67,67,62,58,84,64,36,30.03,29.94,5,2,14,0.00
2013-9-5,87,75,68,70,65,61,86,71,53,30.09,29.98,8,3,14,0.00
2013-9-6,94,80,68,71,66,62,82,64,43,29.98,29.76,8,3,14,0.00
2013-9-7,89,78,69,75,69,60,93,76,59,29.86,29.74,3,0,7,0.00
2013-9-8,91,80,71,75,73,70,97,81,58,29.87,29.66,4,1,11,0.00
2013-9-9,96,84,73,70,64,61,74,54,35,29.77,29.62,8,2,16,0.00
2013-9-10,84,74,66,68,65,63,91,74,49,29.99,29.77,1,0,4,0.00
2013-9-11,84,71,60,67,61,58,96,72,41,30.09,29.99,1,0,3,0.00
2013-9-12,80,68,58,60,53,48,92,62,34,30.22,30.09,2,0,9,0.00
2013-9-13,76,62,47,54,50,45,94,69,42,30.19,30.01,4,1,11,0.00
2013-9-14,74,66,59,60,55,50,82,68,54,30.01,29.78,8,3,16,0.00
2013-9-15,72,64,57,61,56,52,90,77,59,30.24,29.80,3,1,9,0.00
2013-9-16,67,61,58,55,53,51,87,75,62,30.29,30.12,4,1,10,0.00
2013-9-17,70,63,57,66,60,55,95,91,83,30.12,29.75,7,2,12,0.00
2013-9-18,89,77,68,70,68,66,94,75,53,29.75,29.55,7,3,15,0.00
2013-9-19,78,66,52,67,57,48,94,73,47,30.02,29.53,8,2,25,0.20
2013-9-20,69,56,44,48,45,42,92,70,40,30.10,29.97,4,1,12,0.00
2013-9-21,83,62,45,56,48,42,92,64,33,30.02,29.76,6,2,15,0.00
2013-9-22,82,68,55,55,52,50,83,59,36,29.77,29.63,9,4,19,0.00
2013-9-23,77,65,57,57,52,47,92,64,39,29.71,29.58,7,3,19,0.27
2013-9-24,73,62,56,60,57,55,96,86,61,29.91,29.70,2,0,9,0.11
2013-9-25,78,65,53,60,57,52,96,77,50,29.89,29.61,6,2,18,0.01
2013-9-26,87,74,63,62,59,57,84,63,40,29.65,29.57,6,4,18,0.00
2013-9-27,84,71,58,62,59,54,87,66,45,29.71,29.58,7,3,19,0.01
2013-9-28,66,55,48,54,45,40,95,72,39,30.01,29.65,7,2,14,0.58
2013-9-29,79,64,49,47,44,41,75,51,26,30.01,29.75,10,3,24,0.00
2013-9-30,85,69,56,53,49,45,73,51,27,29.77,29.56,7,2,15,0.00
2013-10-1,76,64,52,54,44,36,80,51,25,29.94,29.64,4,0,8,0.00
2013-10-2,77,62,51,69,55,40,96,79,59,29.93,29.74,5,1,13,6.63
2013-10-3,61,57,51,59,55,50,97,95,89,29.81,29.75,1,0,4,0.01
2013-10-4,74,59,40,68,55,34,97,88,64,29.81,29.49,10,3,22,0.16
2013-10-5,44,40,38,39,35,32,95,80,71,29.85,29.77,7,4,20,0.03
2013-10-6,60,48,41,44,39,31,95,75,34,30.08,29.85,6,2,11,0.04
2013-10-7,76,56,36,50,42,35,96,66,31,30.08,29.89,4,1,8,0.00
2013-10-8,78,64,52,47,44,41,67,50,30,29.89,29.72,9,4,20,0.00
2013-10-9,79,65,53,53,50,46,83,61,36,29.88,29.79,6,2,16,0.00
2013-10-10,78,67,57,59,56,53,88,69,49,29.86,29.60,6,3,17,0.00
2013-10-11,69,61,47,58,50,41,86,70,42,29.87,29.44,11,5,25,0.00
2013-10-12,62,51,39,41,35,30,82,57,29,30.29,29.87,5,1,13,0.00
2013-10-13,68,52,35,43,36,32,91,59,29,30.40,30.23,5,2,14,0.02
2013-10-14,55,48,45,53,46,42,97,91,61,30.26,29.65,7,3,18,2.57
2013-10-15,49,43,40,45,39,36,91,85,80,30.13,29.75,7,4,13,0.00
2013-10-16,57,45,38,39,37,33,90,73,42,30.13,29.95,2,1,7,0.00
2013-10-17,47,41,33,41,36,31,94,83,74,30.13,29.89,5,2,12,0.00
2013-10-18,51,39,28,36,30,26,92,74,37,30.17,30.03,2,0,6,0.00
2013-10-19,61,46,33,39,35,30,90,68,39,30.02,29.79,3,1,8,0.00
2013-10-20,60,49,36,42,38,32,86,68,46,30.05,29.72,6,2,9,0.00
2013-10-21,54,41,30,40,34,28,93,78,47,30.09,29.95,3,0,9,0.00
2013-10-22,47,43,31,44,38,29,94,84,71,30.14,29.91,4,1,12,0.04
2013-10-23,51,40,31,43,36,29,96,87,72,30.28,30.06,1,0,6,0.00
2013-10-24,50,37,26,34,27,22,93,70,37,30.45,30.28,2,0,5,0.00
2013-10-25,61,47,32,40,36,29,89,66,44,30.41,30.04,9,3,25,0.00
2013-10-26,51,43,32,39,32,26,85,65,41,30.27,30.04,4,1,14,0.00
2013-10-27,74,50,32,42,35,27,83,58,28,30.13,29.81,3,0,10,0.00
2013-10-28,46,40,35,37,34,30,90,80,68,30.25,30.02,5,2,12,0.05
2013-10-29,40,39,37,39,37,36,96,94,90,30.22,30.03,1,0,8,0.48
2013-10-30,42,38,33,39,36,32,96,94,88,30.07,29.80,2,0,8,0.02
2013-10-31,55,41,30,42,35,29,97,81,50,29.80,29.55,5,1,8,0.01
2013-11-1,55,46,37,42,38,34,90,75,47,30.06,29.64,8,3,14,0.04
2013-11-2,61,44,30,36,30,25,92,62,26,30.20,30.00,3,1,7,0.00
2013-11-3,61,49,41,39,34,29,74,57,41,30.00,29.60,11,4,23,0.00
2013-11-4,53,44,36,38,35,30,91,72,41,30.01,29.70,6,2,6,0.00
2013-11-5,38,33,31,34,31,29,95,93,78,30.20,30.03,3,1,0,0.08
2013-11-6,35,31,27,31,28,25,95,91,84,30.32,30.20,4,1,0,0.00
2013-11-7,47,35,27,33,28,25,95,78,56,30.48,30.23,3,1,0,0.17
2013-11-8,58,45,36,42,35,28,81,70,54,30.22,29.71,8,3,0,0.04
2013-11-9,56,46,38,37,33,29,78,62,46,30.38,29.94,7,2,0,0.00
2013-11-10,53,42,31,40,33,27,89,72,48,30.39,30.14,8,2,0,0.00
2013-11-11,44,26,13,40,20,9,92,75,55,30.87,30.14,5,2,0,0.00
2013-11-12,40,23,8,19,13,5,90,67,38,30.95,30.54,7,2,0,0.00
2013-11-13,63,44,27,36,30,19,85,62,33,30.53,29.94,8,3,0,0.00
2013-11-14,59,43,32,45,35,29,90,75,43,29.99,29.88,5,1,0,0.00
2013-11-15,58,44,33,40,36,30,89,73,48,29.89,29.52,8,2,0,0.00
2013-11-16,61,47,35,42,32,19,94,62,20,29.52,29.28,8,2,0,0.00
2013-11-17,53,41,29,39,33,26,89,74,51,30.08,29.38,9,2,0,0.00
2013-11-18,55,38,25,30,26,22,89,64,34,30.25,30.08,5,1,0,0.00
2013-11-19,60,47,34,36,30,25,69,53,34,30.12,29.75,12,5,0,0.00
2013-11-20,57,45,32,37,32,27,80,61,45,30.07,29.71,6,2,0,0.00
2013-11-21,32,21,16,26,15,8,87,75,66,30.74,30.07,8,5,0,0.00
2013-11-22,36,18,3,15,7,-2,82,66,27,30.82,30.68,5,2,0,0.00
2013-11-23,24,15,8,13,7,4,85,70,45,30.99,30.77,3,1,0,0.00
2013-11-24,43,28,13,27,18,5,82,68,50,30.77,30.16,14,6,0,0.00
2013-11-25,43,34,26,29,26,22,89,74,54,30.29,30.11,6,3,0,0.00
2013-11-26,28,24,13,23,15,8,87,70,44,30.52,30.28,8,3,0,0.00
2013-11-27,42,26,9,27,16,6,89,67,41,30.52,30.05,10,3,0,0.00
2013-11-28,32,26,18,24,19,14,88,77,67,30.51,30.18,7,2,0,0.00
2013-11-29,44,30,18,29,22,15,87,75,54,30.50,30.15,9,2,0,0.00
2013-11-30,57,38,24,34,28,21,92,71,37,30.21,30.11,1,0,0,0.00
2013-12-1,46,34,22,31,26,19,90,75,56,30.21,29.84,3,1,5,0.00
2013-12-2,61,42,29,37,31,26,90,70,39,29.84,29.52,3,0,5,0.00
2013-12-3,40,30,22,33,27,19,95,90,75,29.83,29.54,6,2,12,0.00
2013-12-4,22,15,8,19,10,1,88,81,75,30.21,29.77,10,8,25,0.00
2013-12-5,10,5,0,1,-3,-8,76,68,54,30.60,30.21,10,5,19,0.00
2013-12-6,0,-1,-2,-8,-8,-9,71,70,68,30.61,30.59,4,4,8,0.00
2013-12-7,7,7,7,2,1,1,79,78,77,30.53,30.51,5,4,8,0.00
2013-12-8,16,10,0,10,5,-5,87,82,74,30.51,30.14,5,1,10,0.00
2013-12-9,21,8,-4,11,0,-9,79,70,56,30.42,30.13,9,4,15,0.00
2013-12-10,31,24,12,28,15,6,89,71,62,30.29,30.13,9,3,13,0.00
2013-12-12,50,36,24,26,23,19,84,61,34,30.30,30.09,5,1,6,0.00
2013-12-13,30,23,17,24,18,13,89,84,72,30.27,29.97,3,1,8,0.00
2013-12-14,24,18,11,20,14,8,92,86,81,30.35,30.18,5,2,11,0.00
2013-12-15,35,24,18,28,20,16,92,86,73,30.18,29.99,3,0,6,0.00
2013-12-16,47,33,16,33,26,14,94,78,56,30.23,30.01,7,1,16,0.00
2013-12-17,42,32,26,27,22,16,91,68,38,30.36,30.03,6,2,11,0.00
2013-12-18,60,40,28,31,26,22,86,59,32,30.03,29.72,6,1,13,0.00
2013-12-19,38,21,8,29,16,4,91,82,70,30.10,29.80,5,3,15,0.00
2013-12-20,18,12,7,10,7,3,86,80,72,30.15,29.96,5,2,11,0.00
2013-12-21,29,16,8,16,11,5,88,79,58,30.08,29.87,3,1,7,0.00
2013-12-22,17,11,4,10,5,-1,87,77,62,30.56,30.08,6,3,11,0.00
2013-12-23,12,4,-5,-1,-6,-10,81,65,47,30.75,30.57,6,3,12,0.00
2013-12-24,34,20,6,29,15,-4,90,80,58,30.58,30.13,9,6,21,0.00
2013-12-25,38,28,16,29,22,14,94,79,60,30.37,30.26,8,2,15,0.00
2013-12-26,50,33,24,27,22,18,88,68,35,30.30,30.13,6,1,8,0.00
2013-12-27,61,41,24,33,27,21,90,61,34,30.29,30.04,5,1,10,0.00
2013-12-28,50,31,9,29,22,2,80,70,41,30.30,29.80,12,2,21,0.00
2013-12-29,13,6,0,3,-7,-13,76,55,37,30.53,30.30,12,4,18,0.00
2013-12-30,39,21,8,30,11,-6,85,65,47,30.37,30.13,12,4,17,0.00
2013-12-31,28,16,10,19,11,4,89,79,65,30.33,30.10,6,2,14,0.00
2014-1-1,10,6,-1,4,2,-4,86,80,77,30.54,30.24,4,2,11,0.00
2014-1-2,13,8,-1,7,3,-4,88,80,67,30.60,30.38,4,1,7,0.00